Time;durP1;ratioP1;P1;durP2;ratioP2;P2;SDS_P1;SDS_P2;PMS_P1;PMS_P2;Temp;Humidity;BMP_temperature;BMP_pressure;BME280_temperature;BME280_humidity;BME280_pressure;Samples;Min_cycle;Max_cycle;Signal;HPM_P1;HPM_P2
2023/08/05 00:01:34;;;;;;;6.70;3.35;;;;;;;17.46;78.90;98557.56;5128636;28;20043;-69
2023/08/05 00:04:01;;;;;;;4.70;3.08;;;;;;;17.45;78.46;98539.81;5128438;28;20062;-69
2023/08/05 00:06:27;;;;;;;3.97;1.90;;;;;;;17.44;78.33;98542.63;5128651;28;20043;-69
2023/08/05 00:08:55;;;;;;;4.43;2.40;;;;;;;17.43;78.21;98538.25;5127966;28;20207;-69
2023/08/05 00:11:23;;;;;;;3.65;2.00;;;;;;;17.43;78.60;98540.94;5128297;28;20101;-69
2023/08/05 00:13:50;;;;;;;4.65;1.90;;;;;;;17.41;78.56;98541.09;5127352;28;20288;-69
2023/08/05 00:16:17;;;;;;;3.03;2.05;;;;;;;17.36;78.83;98538.00;5128429;28;20043;-69
2023/08/05 00:18:43;;;;;;;2.30;1.55;;;;;;;17.39;78.72;98528.84;5127352;28;20043;-69
2023/08/05 00:21:10;;;;;;;4.40;2.28;;;;;;;17.43;78.19;98506.97;5128409;28;20051;-68
2023/08/05 00:23:37;;;;;;;4.55;2.85;;;;;;;17.43;78.41;98498.09;5126725;28;20032;-70
2023/08/05 00:26:05;;;;;;;4.60;2.88;;;;;;;16.96;78.44;98420.47;5128083;28;20344;-69
2023/08/05 00:28:32;;;;;;;3.58;2.60;;;;;;;17.41;79.06;98503.59;5128428;28;20165;-69
2023/08/05 00:30:58;;;;;;;3.10;2.10;;;;;;;17.10;78.84;98470.03;5127176;28;20104;-70
2023/08/05 00:33:25;;;;;;;4.07;2.28;;;;;;;17.36;79.47;98518.41;5128130;28;20039;-70
2023/08/05 00:35:52;;;;;;;3.83;1.85;;;;;;;17.36;79.31;98519.25;5128137;28;20115;-69
2023/08/05 00:38:20;;;;;;;4.30;2.50;;;;;;;17.32;79.03;98504.47;5127770;28;20303;-69
2023/08/05 00:40:46;;;;;;;4.78;2.22;;;;;;;17.33;79.33;98498.13;5126885;28;20047;-70
2023/08/05 00:43:14;;;;;;;3.30;1.77;;;;;;;17.33;78.60;98491.94;5127982;28;20306;-70
2023/08/05 00:45:41;;;;;;;2.70;1.90;;;;;;;17.19;79.14;98463.78;5127847;28;20108;-69
2023/08/05 00:48:08;;;;;;;5.05;2.00;;;;;;;17.18;78.85;98451.38;5127864;28;20051;-70
2023/08/05 00:50:36;;;;;;;2.75;1.92;;;;;;;17.00;79.37;98422.72;5126668;28;20047;-69
2023/08/05 00:53:02;;;;;;;3.42;2.13;;;;;;;17.31;79.24;98467.97;5127396;28;20043;-69
2023/08/05 00:55:29;;;;;;;2.97;2.15;;;;;;;17.26;79.46;98454.19;5126518;28;20047;-70
2023/08/05 00:57:57;;;;;;;3.53;2.15;;;;;;;17.30;79.10;98444.88;5127731;27;20050;-69
2023/08/05 01:00:25;;;;;;;4.43;2.13;;;;;;;17.27;79.42;98432.63;5127369;28;20040;-70
2023/08/05 01:02:53;;;;;;;3.67;2.33;;;;;;;17.25;79.50;98417.69;5127546;27;20047;-70
2023/08/05 01:05:21;;;;;;;3.90;2.20;;;;;;;17.29;79.12;98425.28;5126421;28;20040;-69
2023/08/05 01:07:48;;;;;;;3.78;2.20;;;;;;;17.17;79.17;98439.00;5127132;28;20043;-69
2023/08/05 01:10:15;;;;;;;4.03;2.00;;;;;;;17.18;78.93;98462.09;5127429;28;20303;-70
2023/08/05 01:12:42;;;;;;;3.67;2.40;;;;;;;17.04;78.48;98433.13;5127017;28;20283;-69
2023/08/05 01:15:09;;;;;;;3.83;2.30;;;;;;;16.88;77.45;98404.31;5127039;28;20039;-69
2023/08/05 01:17:37;;;;;;;4.30;2.90;;;;;;;17.09;77.14;98421.00;5126965;28;20177;-70
2023/08/05 01:20:07;;;;;;;3.17;2.10;;;;;;;17.21;76.86;98443.09;5126126;28;20046;-69
2023/08/05 01:22:40;;;;;;;3.25;2.10;;;;;;;17.22;76.51;98447.44;5126614;28;20047;-69
2023/08/05 01:25:24;;;;;;;3.53;2.13;;;;;;;17.17;76.46;98439.84;5127413;28;20093;-70
2023/08/05 01:27:53;;;;;;;3.60;2.57;;;;;;;17.15;76.48;98436.47;5127389;28;20043;-68
2023/08/05 01:30:21;;;;;;;3.00;2.20;;;;;;;17.16;76.86;98424.75;5127029;28;20467;-69
2023/08/05 01:32:48;;;;;;;3.78;2.78;;;;;;;17.18;76.80;98424.59;5126943;28;20091;-69
2023/08/05 01:35:16;;;;;;;3.45;2.53;;;;;;;17.16;77.30;98418.56;5126281;28;20173;-69
2023/08/05 01:37:42;;;;;;;4.07;3.28;;;;;;;17.14;77.21;98399.13;5126936;28;20051;-69
2023/08/05 01:40:10;;;;;;;3.80;2.70;;;;;;;17.16;77.02;98373.88;5125807;28;20047;-69
2023/08/05 01:42:38;;;;;;;3.63;2.63;;;;;;;17.13;78.04;98360.81;5126504;28;20076;-69
2023/08/05 01:45:06;;;;;;;4.18;3.13;;;;;;;16.93;78.53;98341.34;5126836;28;20062;-69
2023/08/05 01:47:33;;;;;;;3.75;2.67;;;;;;;16.76;78.05;98315.38;5126505;28;20039;-69
2023/08/05 01:50:00;;;;;;;3.25;2.50;;;;;;;17.11;77.99;98367.28;5127061;28;20093;-69
2023/08/05 01:52:26;;;;;;;3.17;2.78;;;;;;;17.06;78.97;98375.78;5126651;28;20062;-69
2023/08/05 01:54:53;;;;;;;4.00;2.65;;;;;;;17.06;79.01;98389.16;5126158;28;20112;-69
2023/08/05 01:57:20;;;;;;;4.40;2.20;;;;;;;17.06;78.83;98378.44;5126677;28;20202;-69
2023/08/05 01:59:48;;;;;;;4.10;2.67;;;;;;;17.06;78.52;98385.63;5126594;28;20047;-69
2023/08/05 02:02:14;;;;;;;2.80;1.90;;;;;;;17.11;78.34;98396.75;5126819;28;20085;-69
2023/08/05 02:04:41;;;;;;;2.90;1.85;;;;;;;16.83;77.15;98364.63;5126558;28;20177;-68
2023/08/05 02:07:08;;;;;;;5.40;2.03;;;;;;;17.06;77.17;98420.44;5126190;28;20147;-69
2023/08/05 02:09:34;;;;;;;3.30;2.42;;;;;;;17.08;76.29;98413.09;5126531;28;20180;-70
2023/08/05 02:12:01;;;;;;;4.53;2.47;;;;;;;17.07;76.65;98411.41;5125355;28;20046;-69
2023/08/05 02:14:28;;;;;;;3.65;2.35;;;;;;;17.02;76.51;98392.28;5126113;28;20070;-69
2023/08/05 02:16:56;;;;;;;3.53;2.10;;;;;;;16.98;76.90;98381.03;5126429;28;20043;-69
2023/08/05 02:19:23;;;;;;;3.08;1.88;;;;;;;17.06;76.61;98367.75;5126131;28;20238;-69
2023/08/05 02:21:50;;;;;;;5.80;1.80;;;;;;;17.09;76.09;98378.16;5125304;28;20039;-69
2023/08/05 02:24:16;;;;;;;3.35;2.20;;;;;;;17.06;76.69;98370.41;5126360;28;20046;-69
2023/08/05 02:26:43;;;;;;;3.35;2.33;;;;;;;16.98;76.84;98371.16;5125238;28;20100;-69
2023/08/05 02:29:09;;;;;;;4.50;2.50;;;;;;;16.85;78.02;98361.81;5126486;28;20055;-69
2023/08/05 02:31:36;;;;;;;3.88;2.70;;;;;;;16.83;78.31;98347.72;5126368;28;20043;-69
2023/08/05 02:34:04;;;;;;;3.40;2.38;;;;;;;16.77;78.60;98334.94;5125332;28;20039;-69
2023/08/05 02:36:31;;;;;;;4.38;2.63;;;;;;;16.83;77.99;98340.53;5125891;28;20058;-68
2023/08/05 02:38:58;;;;;;;2.90;2.13;;;;;;;16.80;77.21;98315.91;5126209;28;20055;-69
2023/08/05 02:41:25;;;;;;;3.55;1.80;;;;;;;16.99;77.35;98327.34;5126175;28;20295;-69
2023/08/05 02:43:51;;;;;;;2.88;1.90;;;;;;;16.93;77.47;98333.31;5126140;28;20047;-68
2023/08/05 02:46:18;;;;;;;4.30;2.13;;;;;;;16.94;77.38;98326.97;5129012;28;20234;-69
2023/08/05 02:48:45;;;;;;;5.72;2.13;;;;;;;16.85;78.29;98329.69;5130266;28;20043;-69
2023/08/05 02:51:13;;;;;;;3.53;2.17;;;;;;;16.85;78.70;98325.19;5130079;28;20048;-69
2023/08/05 02:53:40;;;;;;;4.07;1.90;;;;;;;16.83;79.03;98332.50;5130342;28;20035;-69
2023/08/05 02:56:06;;;;;;;3.97;2.10;;;;;;;16.58;78.75;98287.69;5129811;28;20085;-69
2023/08/05 02:58:33;;;;;;;3.30;1.83;;;;;;;16.80;79.07;98330.13;5129980;27;20055;-69
2023/08/05 03:01:05;;;;;;;2.85;1.83;;;;;;;16.84;78.75;98328.84;5129935;28;20086;-69
2023/08/05 03:03:32;;;;;;;3.10;2.03;;;;;;;16.86;79.01;98328.69;5129950;28;20035;-69
2023/08/05 03:05:59;;;;;;;2.83;1.60;;;;;;;16.89;79.25;98329.25;5129706;28;20062;-68
2023/08/05 03:08:27;;;;;;;2.75;1.90;;;;;;;16.91;78.86;98326.41;5128724;28;20303;-69
2023/08/05 03:10:58;;;;;;;4.18;2.38;;;;;;;16.65;78.98;98284.28;5129820;28;20097;-69
2023/08/05 03:13:24;;;;;;;3.40;1.83;;;;;;;16.84;78.84;98304.75;5129384;28;20094;-69
2023/08/05 03:15:51;;;;;;;3.03;1.83;;;;;;;16.83;78.45;98305.75;5128580;28;20047;-68
2023/08/05 03:18:18;;;;;;;5.43;1.98;;;;;;;16.79;78.53;98304.38;5129370;28;20088;-68
2023/08/05 03:20:45;;;;;;;2.55;1.60;;;;;;;16.82;78.71;98313.94;5129672;28;20093;-68
2023/08/05 03:23:11;;;;;;;3.88;2.50;;;;;;;16.78;78.28;98316.06;5128405;28;20307;-68
2023/08/05 03:25:40;;;;;;;2.50;1.80;;;;;;;16.81;78.60;98322.94;5129502;28;20044;-68
2023/08/05 03:28:06;;;;;;;2.90;1.63;;;;;;;16.88;78.51;98327.56;5129749;27;20052;-69
2023/08/05 03:30:33;;;;;;;3.50;2.03;;;;;;;16.72;78.66;98302.44;5128323;28;20036;-69
2023/08/05 03:33:00;;;;;;;3.10;1.92;;;;;;;16.85;78.55;98325.19;5129282;28;20043;-68
2023/08/05 03:35:26;;;;;;;3.00;2.30;;;;;;;16.81;79.01;98321.13;5129296;28;20104;-69
2023/08/05 03:37:54;;;;;;;3.33;2.30;;;;;;;16.79;79.19;98316.91;5129244;28;20094;-68
2023/08/05 03:40:20;;;;;;;3.30;1.95;;;;;;;16.86;78.95;98310.81;5129514;28;20043;-69
2023/08/05 03:42:48;;;;;;;4.10;2.30;;;;;;;16.90;78.84;98301.50;5129157;28;20059;-69
2023/08/05 03:45:15;;;;;;;3.67;2.22;;;;;;;16.72;79.28;98278.34;5129131;28;20039;-69
2023/08/05 03:47:42;;;;;;;5.32;2.53;;;;;;;16.86;78.95;98304.59;5129094;28;20044;-69
2023/08/05 03:50:09;;;;;;;7.60;2.13;;;;;;;16.87;78.45;98300.94;5129055;28;20047;-69
2023/08/05 03:52:36;;;;;;;3.55;2.00;;;;;;;16.98;77.99;98295.38;5128735;28;20046;-69
2023/08/05 03:55:03;;;;;;;3.13;2.17;;;;;;;16.93;78.54;98298.50;5128632;28;20319;-69
2023/08/05 03:57:30;;;;;;;4.13;2.00;;;;;;;16.82;79.03;98285.34;5127907;28;20039;-69
2023/08/05 03:59:58;;;;;;;3.78;1.95;;;;;;;16.89;78.74;98286.44;5128889;28;20115;-69
2023/08/05 04:02:26;;;;;;;3.45;2.00;;;;;;;16.91;78.42;98279.09;5128842;28;20055;-69
2023/08/05 04:04:53;;;;;;;2.70;1.85;;;;;;;16.93;78.48;98273.59;5128809;28;20047;-68
2023/08/05 04:07:20;;;;;;;5.05;2.60;;;;;;;16.99;77.89;98268.47;5129318;28;20039;-69
2023/08/05 04:09:48;;;;;;;3.53;2.40;;;;;;;16.92;78.05;98255.84;5128998;28;20203;-69
2023/08/05 04:12:15;;;;;;;5.88;2.25;;;;;;;16.83;78.26;98222.81;5127476;28;20044;-68
2023/08/05 04:14:43;;;;;;;2.83;1.95;;;;;;;17.02;78.16;98237.88;5128358;28;20032;-69
2023/08/05 04:17:14;;;;;;;3.58;2.33;;;;;;;16.98;78.01;98242.69;5128358;28;20039;-69
2023/08/05 04:19:41;;;;;;;5.93;2.53;;;;;;;16.95;78.50;98239.47;5128548;28;20035;-69
2023/08/05 04:22:08;;;;;;;3.50;2.35;;;;;;;16.99;78.59;98228.31;5128404;28;20207;-69
2023/08/05 04:24:35;;;;;;;4.47;2.40;;;;;;;16.99;78.72;98225.66;5127244;28;20039;-69
2023/08/05 04:27:04;;;;;;;5.13;2.58;;;;;;;16.96;78.34;98217.06;5128364;28;20104;-69
2023/08/05 04:29:30;;;;;;;3.80;2.45;;;;;;;17.05;78.23;98221.50;5128160;28;20043;-69
2023/08/05 04:31:58;;;;;;;3.45;2.40;;;;;;;17.06;78.51;98222.34;5127990;28;20059;-69
2023/08/05 04:34:26;;;;;;;4.93;2.38;;;;;;;16.99;77.81;98203.38;5128479;28;20043;-69
2023/08/05 04:36:53;;;;;;;4.07;2.38;;;;;;;17.11;77.57;98236.97;5128225;28;20067;-68
2023/08/05 04:39:20;;;;;;;3.90;2.78;;;;;;;16.92;77.89;98237.09;5128036;28;20052;-68
2023/08/05 04:41:47;;;;;;;3.92;2.70;;;;;;;17.13;77.44;98277.81;5127791;28;20223;-69
2023/08/05 04:44:14;;;;;;;3.65;2.50;;;;;;;17.11;77.65;98287.00;5128536;28;20039;-69
2023/08/05 04:46:41;;;;;;;3.30;2.33;;;;;;;17.11;77.28;98284.31;5127115;28;20307;-68
2023/08/05 04:49:10;;;;;;;5.38;2.60;;;;;;;17.13;77.16;98293.88;5128189;28;20104;-69
2023/08/05 04:51:38;;;;;;;5.45;2.97;;;;;;;17.11;77.28;98305.72;5126714;28;20040;-69
2023/08/05 04:54:05;;;;;;;5.43;3.00;;;;;;;16.95;78.39;98283.16;5127977;28;20040;-69
2023/08/05 04:56:33;;;;;;;4.03;2.42;;;;;;;17.13;77.95;98314.44;5127284;28;20051;-69
2023/08/05 04:59:00;;;;;;;4.50;2.60;;;;;;;17.13;78.73;98325.16;5127731;27;20040;-69
2023/08/05 05:01:26;;;;;;;3.88;2.70;;;;;;;17.15;78.82;98331.19;5127370;28;20329;-68
2023/08/05 05:03:53;;;;;;;4.60;2.97;;;;;;;17.09;80.42;98326.44;5127272;28;20105;-68
2023/08/05 05:06:20;;;;;;;3.10;2.38;;;;;;;17.12;80.07;98326.16;5127254;28;20040;-69
2023/08/05 05:08:48;;;;;;;4.15;2.50;;;;;;;17.09;80.61;98313.06;5127627;28;20172;-69
2023/08/05 05:11:15;;;;;;;5.85;2.88;;;;;;;17.02;81.23;98309.31;5126305;28;20047;-69
2023/08/05 05:13:43;;;;;;;4.75;2.53;;;;;;;17.01;80.93;98313.81;5126157;28;20296;-69
2023/08/05 05:16:11;;;;;;;6.60;3.15;;;;;;;17.14;80.07;98310.78;5126855;28;20051;-69
2023/08/05 05:18:37;;;;;;;4.32;2.92;;;;;;;17.14;79.31;98294.72;5127598;28;20051;-69
2023/08/05 05:21:04;;;;;;;4.95;3.17;;;;;;;17.14;81.28;98276.81;5127267;28;20051;-69
2023/08/05 05:23:31;;;;;;;4.10;2.88;;;;;;;17.04;82.22;98257.31;5126923;28;20044;-69
2023/08/05 05:25:59;;;;;;;3.75;2.88;;;;;;;17.08;81.94;98252.50;5126879;27;20088;-69
2023/08/05 05:28:25;;;;;;;3.97;2.55;;;;;;;17.15;81.90;98240.19;5126000;28;20039;-69
2023/08/05 05:30:52;;;;;;;5.05;2.65;;;;;;;17.17;81.83;98230.16;5126790;28;20237;-69
2023/08/05 05:33:19;;;;;;;3.72;2.42;;;;;;;17.12;82.33;98238.66;5127043;28;20311;-68
2023/08/05 05:35:46;;;;;;;4.90;2.65;;;;;;;17.11;81.87;98225.41;5125758;28;20046;-69
2023/08/05 05:38:13;;;;;;;4.75;2.70;;;;;;;17.12;81.88;98222.59;5126921;28;20047;-68
2023/08/05 05:40:40;;;;;;;3.95;2.70;;;;;;;17.14;82.11;98225.94;5126888;28;20052;-68
2023/08/05 05:43:09;;;;;;;3.65;2.75;;;;;;;17.21;81.32;98236.91;5126775;28;20039;-69
2023/08/05 05:45:36;;;;;;;4.75;3.50;;;;;;;16.94;81.52;98208.34;5126842;28;20065;-68
2023/08/05 05:48:02;;;;;;;4.40;3.03;;;;;;;17.13;81.20;98218.06;5126740;28;20296;-69
2023/08/05 05:50:29;;;;;;;5.13;3.50;;;;;;;16.95;81.63;98200.19;5126602;28;20195;-68
2023/08/05 05:52:56;;;;;;;3.95;3.10;;;;;;;17.01;82.09;98238.88;5126744;28;20043;-69
2023/08/05 05:55:23;;;;;;;3.80;2.60;;;;;;;16.52;81.67;98165.25;5126579;28;20063;-68
2023/08/05 05:57:49;;;;;;;4.03;3.05;;;;;;;16.99;82.19;98276.50;5126653;28;20039;-70
2023/08/05 06:00:18;;;;;;;3.78;2.72;;;;;;;16.90;82.96;98282.75;5126699;28;20039;-68
2023/08/05 06:02:44;;;;;;;6.03;2.60;;;;;;;17.05;81.39;98296.47;5126324;28;20052;-68
2023/08/05 06:05:11;;;;;;;4.15;2.45;;;;;;;17.01;80.21;98271.00;5126253;28;20039;-68
2023/08/05 06:07:38;;;;;;;5.00;2.83;;;;;;;17.11;80.38;98301.22;5126546;28;20051;-68
2023/08/05 06:10:06;;;;;;;4.95;2.67;;;;;;;17.06;79.87;98281.25;5126758;28;20052;-68
2023/08/05 06:12:36;;;;;;;3.90;2.83;;;;;;;17.07;80.01;98253.50;5126376;28;20051;-68
2023/08/05 06:15:03;;;;;;;4.00;2.85;;;;;;;17.05;81.38;98232.22;5126275;28;20036;-68
2023/08/05 06:17:31;;;;;;;5.68;2.60;;;;;;;17.04;82.19;98240.41;5126363;28;20055;-68
2023/08/05 06:19:58;;;;;;;3.75;2.42;;;;;;;17.05;82.34;98237.56;5125854;28;20039;-68
2023/08/05 06:22:25;;;;;;;8.57;2.80;;;;;;;17.11;82.37;98241.47;5126617;28;20047;-68
2023/08/05 06:24:52;;;;;;;3.13;2.53;;;;;;;17.14;82.69;98244.69;5126329;28;20051;-69
2023/08/05 06:27:18;;;;;;;5.60;3.17;;;;;;;17.06;82.34;98239.25;5126098;28;20043;-68
2023/08/05 06:29:45;;;;;;;3.42;2.75;;;;;;;17.00;82.91;98245.22;5126138;28;20043;-68
2023/08/05 06:32:13;;;;;;;3.75;2.90;;;;;;;17.07;82.46;98245.47;5126620;28;20051;-69
2023/08/05 06:34:41;;;;;;;4.10;3.25;;;;;;;17.05;83.02;98231.38;5125907;28;20055;-69
2023/08/05 06:37:07;;;;;;;5.07;3.00;;;;;;;16.88;83.20;98220.50;5126503;28;20044;-69
2023/08/05 06:39:35;;;;;;;3.42;2.88;;;;;;;17.08;82.55;98247.13;5126496;28;20055;-69
2023/08/05 06:42:02;;;;;;;4.97;2.90;;;;;;;17.05;82.36;98237.56;5126420;28;20039;-69
2023/08/05 06:44:28;;;;;;;4.40;3.25;;;;;;;16.90;82.27;98223.03;5125851;28;20085;-67
2023/08/05 06:46:55;;;;;;;4.25;2.58;;;;;;;17.06;81.53;98249.97;5124891;28;20188;-67
2023/08/05 06:49:22;;;;;;;3.10;2.65;;;;;;;17.06;81.27;98233.06;5126319;28;20070;-68
2023/08/05 06:51:50;;;;;;;4.70;2.40;;;;;;;16.96;80.68;98207.22;5126337;28;20089;-67
2023/08/05 06:54:17;;;;;;;3.10;2.50;;;;;;;17.09;80.89;98227.41;5124806;28;20118;-67
2023/08/05 06:56:44;;;;;;;3.80;2.47;;;;;;;17.05;80.71;98226.03;5125567;28;20060;-67
2023/08/05 06:59:11;;;;;;;3.70;2.55;;;;;;;17.04;80.60;98214.47;5126255;28;20089;-67
2023/08/05 07:01:40;;;;;;;3.30;2.50;;;;;;;16.99;81.30;98233.69;5126201;28;20055;-69
2023/08/05 07:04:06;;;;;;;3.25;2.58;;;;;;;16.99;81.22;98236.34;5125377;28;20046;-69
2023/08/05 07:06:33;;;;;;;4.43;2.60;;;;;;;16.96;81.71;98243.84;5125884;28;20044;-68
2023/08/05 07:09:03;;;;;;;3.72;2.83;;;;;;;17.01;81.50;98249.56;5125644;28;20055;-68
2023/08/05 07:11:30;;;;;;;3.72;3.10;;;;;;;17.05;80.56;98245.59;5125956;28;20177;-69
2023/08/05 07:13:56;;;;;;;4.72;2.65;;;;;;;17.04;80.47;98241.25;5125228;28;20138;-68
2023/08/05 07:16:22;;;;;;;4.35;2.78;;;;;;;17.09;80.34;98236.28;5125628;28;20118;-68
2023/08/05 07:18:49;;;;;;;3.08;2.25;;;;;;;17.07;80.11;98235.59;5126154;28;20036;-68
2023/08/05 07:21:16;;;;;;;3.60;2.75;;;;;;;16.90;80.10;98197.13;5125523;28;20191;-68
2023/08/05 07:23:43;;;;;;;3.78;2.88;;;;;;;17.05;80.53;98242.09;5125568;28;20055;-68
2023/08/05 07:26:11;;;;;;;4.13;2.60;;;;;;;16.96;80.28;98244.69;5126361;28;20035;-68
2023/08/05 07:28:37;;;;;;;3.28;2.50;;;;;;;16.66;80.62;98181.66;5125759;28;20043;-69
2023/08/05 07:31:05;;;;;;;4.30;2.50;;;;;;;16.90;80.91;98212.34;5125370;28;20043;-69
2023/08/05 07:33:32;;;;;;;5.00;2.92;;;;;;;16.33;80.74;98100.22;5128468;28;20039;-69
2023/08/05 07:36:08;;;;;;;4.38;2.95;;;;;;;16.94;80.80;98192.31;5129021;28;20061;-69
2023/08/05 07:38:35;;;;;;;4.75;2.63;;;;;;;16.96;81.37;98211.72;5128619;28;20088;-67
2023/08/05 07:41:02;;;;;;;3.70;2.70;;;;;;;16.96;82.10;98217.06;5129498;28;20281;-67
2023/08/05 07:43:33;;;;;;;3.38;2.42;;;;;;;17.03;80.92;98228.00;5129114;28;20237;-67
2023/08/05 07:45:59;;;;;;;4.35;2.80;;;;;;;17.06;80.77;98214.31;5127956;28;20039;-67
2023/08/05 07:48:27;;;;;;;3.55;2.50;;;;;;;16.99;81.52;98206.91;5129082;28;20291;-69
2023/08/05 07:50:53;;;;;;;4.88;3.15;;;;;;;17.00;81.10;98208.59;5128785;28;20040;-68
2023/08/05 07:53:23;;;;;;;4.43;2.72;;;;;;;17.03;80.91;98203.94;5128713;28;20226;-68
2023/08/05 07:55:52;;;;;;;4.85;3.15;;;;;;;16.95;81.77;98210.88;5127567;28;20331;-68
2023/08/05 07:58:19;;;;;;;5.60;3.15;;;;;;;16.98;81.14;98210.56;5128888;28;20195;-69
2023/08/05 08:00:47;;;;;;;3.60;3.03;;;;;;;16.95;80.92;98208.22;5128641;28;20047;-68
2023/08/05 08:03:14;;;;;;;3.40;2.67;;;;;;;17.02;81.14;98210.28;5127651;28;20039;-68
2023/08/05 08:05:40;;;;;;;4.43;3.35;;;;;;;16.99;80.76;98209.59;5127478;28;20043;-69
2023/08/05 08:08:07;;;;;;;4.15;2.90;;;;;;;16.88;80.77;98184.88;5110740;28;20048;-69
2023/08/05 08:10:34;;;;;;;3.97;2.97;;;;;;;17.04;80.84;98206.44;5128612;28;20050;-69
2023/08/05 08:13:01;;;;;;;5.50;3.40;;;;;;;17.03;81.12;98210.13;5128569;28;20050;-68
2023/08/05 08:15:28;;;;;;;4.63;3.08;;;;;;;17.05;81.14;98209.97;5128290;28;20203;-68
2023/08/05 08:17:56;;;;;;;5.05;2.85;;;;;;;17.02;80.89;98212.94;5128324;28;20048;-69
2023/08/05 08:20:22;;;;;;;4.75;3.53;;;;;;;17.03;80.94;98209.28;5128127;28;20044;-69
2023/08/05 08:22:49;;;;;;;3.85;3.05;;;;;;;17.08;80.53;98209.66;5128429;28;20047;-68
2023/08/05 08:25:16;;;;;;;4.50;3.60;;;;;;;17.04;81.02;98213.63;5128328;28;20039;-68
2023/08/05 08:27:42;;;;;;;4.88;2.85;;;;;;;17.02;80.91;98216.47;5128875;28;20218;-68
2023/08/05 08:30:11;;;;;;;3.60;2.70;;;;;;;17.03;81.38;98220.00;5128011;27;20177;-68
2023/08/05 08:32:38;;;;;;;4.68;3.03;;;;;;;17.06;81.05;98217.84;5128221;28;20043;-68
2023/08/05 08:35:07;;;;;;;6.20;3.70;;;;;;;17.07;80.86;98216.00;5128282;28;20043;-67
2023/08/05 08:37:33;;;;;;;4.68;3.13;;;;;;;17.06;81.48;98219.69;5128107;28;20168;-67
2023/08/05 08:40:00;;;;;;;4.88;3.20;;;;;;;17.02;81.54;98215.63;5128172;28;20043;-67
2023/08/05 08:42:27;;;;;;;4.32;3.03;;;;;;;16.93;81.38;98198.66;5127637;28;20046;-67
2023/08/05 08:44:54;;;;;;;3.80;3.20;;;;;;;17.03;81.67;98222.66;5127598;28;20051;-68
2023/08/05 08:47:23;;;;;;;5.90;3.42;;;;;;;17.04;81.11;98214.47;5127935;28;20103;-68
2023/08/05 08:49:53;;;;;;;7.65;3.42;;;;;;;17.06;81.48;98239.25;5127355;28;20044;-68
2023/08/05 08:52:22;;;;;;;6.38;3.83;;;;;;;17.03;81.48;98230.69;5126694;28;20054;-69
2023/08/05 08:54:51;;;;;;;4.28;3.03;;;;;;;17.04;81.22;98230.53;5127352;28;20129;-68
2023/08/05 08:57:18;;;;;;;3.78;3.08;;;;;;;17.02;81.38;98229.00;5127721;28;20084;-68
2023/08/05 08:59:45;;;;;;;7.10;2.95;;;;;;;17.04;81.91;98232.38;5109524;28;20062;-68
2023/08/05 09:02:12;;;;;;;5.72;3.47;;;;;;;17.04;81.76;98243.91;5126510;28;20047;-68
2023/08/05 09:04:42;;;;;;;3.95;3.30;;;;;;;17.02;82.14;98247.75;5126449;28;20036;-67
2023/08/05 09:07:09;;;;;;;4.03;3.20;;;;;;;17.05;81.54;98244.75;5126214;28;20043;-68
2023/08/05 09:09:38;;;;;;;5.18;2.95;;;;;;;16.99;82.19;98239.03;5126268;28;20092;-68
2023/08/05 09:12:07;;;;;;;4.30;2.97;;;;;;;15.50;81.73;97990.84;5127413;28;20108;-68
2023/08/05 09:14:34;;;;;;;4.05;3.30;;;;;;;17.00;82.45;98235.34;5127501;28;20206;-68
2023/08/05 09:17:02;;;;;;;6.13;3.35;;;;;;;16.99;82.55;98241.69;5126893;28;20089;-68
2023/08/05 09:19:30;;;;;;;5.25;3.17;;;;;;;16.99;82.37;98228.31;5127066;28;20039;-68
2023/08/05 09:21:58;;;;;;;5.82;4.60;;;;;;;17.02;82.52;98240.56;5127029;28;20376;-68
2023/08/05 09:24:25;;;;;;;4.68;3.80;;;;;;;17.05;82.26;98229.53;5127192;28;20036;-68
2023/08/05 09:26:58;;;;;;;3.88;2.92;;;;;;;16.52;82.17;98135.84;5126886;28;20077;-68
2023/08/05 09:29:26;;;;;;;3.85;2.90;;;;;;;17.07;82.50;98229.41;5127134;28;20047;-68
2023/08/05 09:31:57;;;;;;;4.00;3.17;;;;;;;16.90;82.76;98202.47;5126714;28;20168;-68
2023/08/05 09:34:33;;;;;;;6.75;3.40;;;;;;;17.07;83.22;98238.25;5127133;28;20055;-68
2023/08/05 09:37:00;;;;;;;4.22;3.30;;;;;;;17.08;83.31;98250.66;5126890;28;20035;-68
2023/08/05 09:39:30;;;;;;;3.65;2.95;;;;;;;17.08;82.36;98231.06;5126985;28;20051;-68
2023/08/05 09:42:00;;;;;;;4.07;3.00;;;;;;;17.03;82.78;98225.34;5126898;28;20302;-68
2023/08/05 09:44:27;;;;;;;3.40;2.72;;;;;;;16.79;82.93;98173.25;5125757;28;20050;-68
2023/08/05 09:47:01;;;;;;;4.28;2.92;;;;;;;16.63;83.72;98159.69;5126779;28;20280;-68
2023/08/05 09:49:33;;;;;;;4.07;3.47;;;;;;;17.06;83.69;98233.06;5127022;28;20097;-69
2023/08/05 09:52:00;;;;;;;3.90;2.60;;;;;;;17.03;83.34;98257.47;5126697;28;20188;-68
2023/08/05 09:54:32;;;;;;;3.80;2.80;;;;;;;17.03;82.94;98262.81;5126021;28;20040;-68
2023/08/05 09:57:03;;;;;;;3.67;2.70;;;;;;;16.97;83.38;98248.19;5125903;28;20058;-68
2023/08/05 09:59:30;;;;;;;4.65;2.63;;;;;;;16.98;83.10;98221.28;5126436;28;20207;-68
2023/08/05 10:01:59;;;;;;;3.65;2.92;;;;;;;17.00;83.56;98219.28;5126882;28;20039;-68
2023/08/05 10:04:28;;;;;;;4.90;2.60;;;;;;;16.99;84.02;98224.81;5126392;28;20230;-68
2023/08/05 10:06:55;;;;;;;3.30;2.55;;;;;;;16.99;83.59;98243.53;5126286;28;20035;-68
2023/08/05 10:09:22;;;;;;;3.78;2.67;;;;;;;16.96;83.56;98247.34;5126160;28;20092;-67
2023/08/05 10:11:49;;;;;;;3.03;2.28;;;;;;;16.98;83.30;98252.56;5126163;28;20039;-68
2023/08/05 10:14:18;;;;;;;2.60;2.20;;;;;;;16.80;83.49;98225.78;5125292;28;20080;-68
2023/08/05 10:16:46;;;;;;;2.92;2.25;;;;;;;16.98;83.46;98248.06;5125236;28;20054;-68
2023/08/05 10:19:13;;;;;;;4.18;2.40;;;;;;;16.89;84.09;98232.91;5126369;28;20040;-68
2023/08/05 10:21:40;;;;;;;3.30;2.55;;;;;;;16.94;84.55;98233.28;5126638;28;20043;-68
2023/08/05 10:24:08;;;;;;;3.50;2.50;;;;;;;16.95;84.17;98232.28;5125989;28;20053;-68
2023/08/05 10:26:45;;;;;;;3.63;2.53;;;;;;;16.94;84.46;98214.56;5126274;28;20056;-68
2023/08/05 10:29:29;;;;;;;4.07;2.55;;;;;;;16.91;84.94;98198.81;5126256;28;20054;-68
2023/08/05 10:32:10;;;;;;;3.35;2.10;;;;;;;16.76;85.81;98167.38;5125174;28;20044;-67
2023/08/05 10:34:36;;;;;;;3.88;2.50;;;;;;;16.91;86.18;98161.34;5125281;28;20304;-68
2023/08/05 10:37:04;;;;;;;5.07;3.00;;;;;;;16.82;86.07;98129.31;5126057;28;20101;-68
2023/08/05 10:39:46;;;;;;;3.63;2.72;;;;;;;16.94;86.41;98173.56;5125099;28;20106;-68
2023/08/05 10:42:36;;;;;;;4.82;2.63;;;;;;;16.92;85.58;98163.00;5125168;28;20100;-68
2023/08/05 10:45:21;;;;;;;3.17;2.38;;;;;;;17.00;84.64;98159.56;5125564;28;20208;-68
2023/08/05 10:47:48;;;;;;;3.03;2.25;;;;;;;16.47;85.12;98079.28;5126066;28;20052;-68
2023/08/05 10:50:15;;;;;;;3.40;2.20;;;;;;;17.03;85.21;98148.56;5125728;28;20039;-67
2023/08/05 10:52:43;;;;;;;3.38;2.15;;;;;;;16.85;85.69;98113.78;5125736;28;20103;-68
2023/08/05 10:55:12;;;;;;;5.10;2.72;;;;;;;17.06;86.11;98158.13;5124695;28;20237;-68
2023/08/05 10:57:46;;;;;;;3.83;2.05;;;;;;;17.04;85.92;98160.94;5125758;28;20308;-68
2023/08/05 11:00:21;;;;;;;4.07;2.35;;;;;;;17.07;85.43;98176.69;5125898;28;20234;-68
2023/08/05 11:02:49;;;;;;;2.50;1.90;;;;;;;16.64;84.01;98131.94;5124662;28;20040;-68
2023/08/05 11:05:16;;;;;;;2.40;1.73;;;;;;;16.94;83.60;98205.69;5125790;28;20272;-68
2023/08/05 11:07:43;;;;;;;2.60;1.90;;;;;;;16.46;83.54;98174.72;5129065;28;20295;-68
2023/08/05 11:10:11;;;;;;;2.58;1.88;;;;;;;16.96;83.92;98236.66;5128700;28;20230;-67
2023/08/05 11:12:39;;;;;;;3.20;1.92;;;;;;;16.95;83.91;98180.59;5129549;28;20089;-68
2023/08/05 11:15:07;;;;;;;3.78;2.65;;;;;;;16.87;85.51;98122.50;5129227;28;20054;-68
2023/08/05 11:17:53;;;;;;;7.20;3.25;;;;;;;16.96;86.55;98091.28;5112160;28;20306;-68
2023/08/05 11:20:19;;;;;;;6.38;3.92;;;;;;;16.99;86.53;98110.56;5128399;28;20043;-68
2023/08/05 11:22:47;;;;;;;4.40;2.80;;;;;;;16.97;86.18;98149.19;5129559;28;20051;-68
2023/08/05 11:25:18;;;;;;;4.45;2.33;;;;;;;16.99;85.24;98141.84;5128883;28;20077;-68
2023/08/05 11:27:51;;;;;;;3.20;2.40;;;;;;;16.91;86.11;98126.53;5129408;28;20081;-68
2023/08/05 11:30:20;;;;;;;3.50;2.53;;;;;;;16.96;85.43;98115.38;5129766;28;20086;-68
2023/08/05 11:32:53;;;;;;;3.33;2.45;;;;;;;16.93;86.18;98110.34;5129734;28;20055;-68
2023/08/05 11:35:19;;;;;;;3.05;2.25;;;;;;;16.94;85.81;98110.19;5128263;28;20035;-67
2023/08/05 11:37:46;;;;;;;3.30;2.70;;;;;;;16.91;86.37;98112.31;5129246;28;20040;-68